createdAt,value
2022-10-05T00:02:21.158Z,11.10
2022-10-05T00:08:12.439Z,11.10
2022-10-05T00:10:41.278Z,11.10
2022-10-05T00:13:14.750Z,11.10
2022-10-05T00:15:43.151Z,11.10
2022-10-05T00:18:13.483Z,11.10
2022-10-05T00:20:42.042Z,11.10
2022-10-05T00:23:15.285Z,11.10
2022-10-05T00:25:43.383Z,11.10
2022-10-05T00:28:19.182Z,11.10
2022-10-05T00:30:47.466Z,11.10
2022-10-05T00:33:15.493Z,11.10
2022-10-05T00:35:43.682Z,11.10
2022-10-05T00:38:11.701Z,11.10
2022-10-05T00:40:45.926Z,11.10
2022-10-05T00:43:29.429Z,11.10
2022-10-05T00:45:59.565Z,11.10
2022-10-05T00:48:32.796Z,11.10
2022-10-05T00:51:06.108Z,11.20
2022-10-05T00:53:42.655Z,11.10
2022-10-05T00:56:18.362Z,11.20
2022-10-05T00:58:56.913Z,11.20
2022-10-05T01:01:27.331Z,11.20
2022-10-05T01:04:02.957Z,11.10
2022-10-05T01:06:32.827Z,11.20
2022-10-05T01:09:07.062Z,11.20
2022-10-05T01:11:39.819Z,11.20
2022-10-05T01:14:13.944Z,11.20
2022-10-05T01:16:49.204Z,11.20
2022-10-05T01:19:29.513Z,11.20
2022-10-05T01:22:02.547Z,11.20
2022-10-05T01:24:43.038Z,11.20
2022-10-05T01:27:16.726Z,11.20
2022-10-05T01:29:49.004Z,11.20
2022-10-05T01:32:23.848Z,11.20
2022-10-05T01:34:54.786Z,11.20
2022-10-05T01:37:25.987Z,11.20
2022-10-05T01:39:59.258Z,11.20
2022-10-05T01:42:30.001Z,11.20
2022-10-05T01:45:05.172Z,11.20
2022-10-05T01:47:38.142Z,11.20
2022-10-05T01:50:09.665Z,11.20
2022-10-05T01:52:40.503Z,11.20
2022-10-05T01:55:14.487Z,11.30
2022-10-05T01:57:53.313Z,11.30
2022-10-05T02:00:22.899Z,11.20
2022-10-05T02:02:53.808Z,11.30
2022-10-05T02:05:23.002Z,11.30
2022-10-05T02:07:54.063Z,11.30
2022-10-05T02:10:25.272Z,11.30
2022-10-05T02:12:55.630Z,11.30
2022-10-05T02:15:26.871Z,11.30
2022-10-05T02:17:57.949Z,11.30
2022-10-05T02:20:26.881Z,11.30
2022-10-05T02:22:57.349Z,11.30
2022-10-05T02:25:28.041Z,11.30
2022-10-05T02:27:58.960Z,11.30
2022-10-05T02:30:29.923Z,11.30
2022-10-05T02:33:01.422Z,11.20
2022-10-05T02:35:29.625Z,11.30
2022-10-05T02:38:06.786Z,11.30
2022-10-05T02:40:39.236Z,11.20
2022-10-05T02:43:15.556Z,11.30
2022-10-05T02:45:50.331Z,11.30
2022-10-05T02:48:22.207Z,11.20
2022-10-05T02:50:53.498Z,11.30
2022-10-05T02:53:26.929Z,11.30
2022-10-05T02:55:59.730Z,11.30
2022-10-05T02:58:34.371Z,11.30
2022-10-05T03:01:06.998Z,11.30
2022-10-05T03:03:36.770Z,11.40
2022-10-05T03:06:06.558Z,11.40
2022-10-05T03:08:38.231Z,11.40
2022-10-05T03:11:09.790Z,11.40
2022-10-05T03:13:43.513Z,11.40
2022-10-05T03:16:19.781Z,11.40
2022-10-05T03:18:54.417Z,11.40
2022-10-05T03:21:27.864Z,11.40
2022-10-05T03:24:04.002Z,11.50
2022-10-05T03:26:36.971Z,11.50
2022-10-05T03:29:10.315Z,11.50
2022-10-05T03:31:44.637Z,11.50
2022-10-05T03:34:15.269Z,11.50
2022-10-05T03:36:45.657Z,11.50
2022-10-05T03:39:18.037Z,11.50
2022-10-05T03:41:48.636Z,11.50
2022-10-05T03:44:24.546Z,11.50
2022-10-05T03:47:13.282Z,11.50
2022-10-05T03:49:51.051Z,11.60
2022-10-05T03:52:22.179Z,11.50
2022-10-05T03:54:51.788Z,11.60
2022-10-05T03:57:21.346Z,11.60
2022-10-05T03:59:55.960Z,11.60
2022-10-05T04:02:26.057Z,11.50
2022-10-05T04:04:58.150Z,11.60
2022-10-05T04:07:33.399Z,11.60
2022-10-05T04:10:01.941Z,11.60
2022-10-05T04:12:36.423Z,11.60
2022-10-05T04:15:05.639Z,11.60
2022-10-05T04:17:35.735Z,11.50
2022-10-05T04:20:06.856Z,11.50
2022-10-05T04:22:37.842Z,11.40
2022-10-05T04:25:09.555Z,11.40
2022-10-05T04:27:40.078Z,11.40
2022-10-05T04:30:13.816Z,11.40
2022-10-05T04:32:43.523Z,11.40
2022-10-05T04:35:26.502Z,11.40
2022-10-05T04:37:59.014Z,11.40
2022-10-05T04:40:38.860Z,11.40
2022-10-05T04:43:10.903Z,11.40
2022-10-05T04:45:46.741Z,11.40
2022-10-05T04:48:26.022Z,11.40
2022-10-05T04:51:01.100Z,11.40
2022-10-05T04:53:34.727Z,11.40
2022-10-05T04:56:06.559Z,11.40
2022-10-05T04:58:52.282Z,11.40
2022-10-05T05:01:26.306Z,11.50
2022-10-05T05:04:03.025Z,11.50
2022-10-05T05:06:34.429Z,11.50
2022-10-05T05:09:11.529Z,11.60
2022-10-05T05:11:46.324Z,11.60
2022-10-05T05:14:39.399Z,11.60
2022-10-05T05:17:14.730Z,11.60
2022-10-05T05:19:46.615Z,11.60
2022-10-05T05:22:19.682Z,11.60
2022-10-05T05:24:55.793Z,11.60
2022-10-05T05:27:40.453Z,11.60
2022-10-05T05:30:15.775Z,11.60
2022-10-05T05:32:46.994Z,11.60
2022-10-05T05:35:40.482Z,11.70
2022-10-05T05:38:18.042Z,11.70
2022-10-05T05:40:49.918Z,11.70
2022-10-05T05:43:24.039Z,11.70
2022-10-05T05:45:55.654Z,11.70
2022-10-05T05:48:27.985Z,11.70
2022-10-05T05:50:57.495Z,11.70
2022-10-05T05:53:29.724Z,11.70
2022-10-05T05:56:06.968Z,11.70
2022-10-05T05:58:36.904Z,11.80
2022-10-05T06:01:30.551Z,11.80
2022-10-05T06:04:03.911Z,11.80
2022-10-05T06:06:34.878Z,11.80
2022-10-05T06:09:05.369Z,11.80
2022-10-05T06:11:37.711Z,11.90
2022-10-05T06:14:12.543Z,11.90
2022-10-05T06:16:43.566Z,11.90
2022-10-05T06:19:12.602Z,11.90
2022-10-05T06:21:44.165Z,11.90
2022-10-05T06:24:16.344Z,11.90
2022-10-05T06:27:07.977Z,12.00
2022-10-05T06:29:39.988Z,12.00
2022-10-05T06:32:18.574Z,12.00
2022-10-05T06:34:52.646Z,12.10
2022-10-05T06:37:26.797Z,12.10
2022-10-05T06:40:02.240Z,12.10
2022-10-05T06:42:45.758Z,12.20
2022-10-05T06:45:18.893Z,12.20
2022-10-05T06:47:51.099Z,12.30
2022-10-05T06:50:23.352Z,12.30
2022-10-05T06:53:01.881Z,12.30
2022-10-05T06:55:33.647Z,12.30
2022-10-05T06:58:07.482Z,12.40
2022-10-05T07:00:39.962Z,12.40
2022-10-05T07:03:17.910Z,12.40
2022-10-05T07:05:50.414Z,12.50
2022-10-05T07:08:21.598Z,12.50
2022-10-05T07:11:01.585Z,12.50
2022-10-05T07:13:41.178Z,12.60
2022-10-05T07:16:13.426Z,12.60
2022-10-05T07:18:49.407Z,12.60
2022-10-05T07:21:21.811Z,12.60
2022-10-05T07:23:54.163Z,12.60
2022-10-05T07:26:27.255Z,12.60
2022-10-05T07:29:10.754Z,12.70
2022-10-05T07:31:43.907Z,12.70
2022-10-05T07:34:16.783Z,12.80
2022-10-05T07:37:06.404Z,12.90
2022-10-05T07:39:59.064Z,12.90
2022-10-05T07:42:33.254Z,12.90
2022-10-05T07:45:08.595Z,13.00
2022-10-05T07:47:39.359Z,13.00
2022-10-05T07:50:14.157Z,13.10
2022-10-05T07:52:43.595Z,13.10
2022-10-05T07:55:17.938Z,13.10
2022-10-05T07:57:51.263Z,13.10
2022-10-05T08:00:21.721Z,13.20
2022-10-05T08:02:51.641Z,13.20
2022-10-05T08:05:32.293Z,13.20
2022-10-05T08:08:05.910Z,13.20
2022-10-05T08:10:38.206Z,13.20
2022-10-05T08:13:09.262Z,13.20
2022-10-05T08:15:43.247Z,13.20
2022-10-05T08:18:14.799Z,13.20
2022-10-05T08:20:45.879Z,13.30
2022-10-05T08:23:21.030Z,13.30
2022-10-05T08:25:54.209Z,13.30
2022-10-05T08:28:24.499Z,13.40
2022-10-05T08:31:01.115Z,13.40
2022-10-05T08:33:32.602Z,13.40
2022-10-05T08:36:05.103Z,13.40
2022-10-05T08:38:34.355Z,13.40
2022-10-05T08:41:17.243Z,13.50
2022-10-05T08:44:06.163Z,13.50
2022-10-05T08:46:47.106Z,13.50
2022-10-05T08:49:25.276Z,13.50
2022-10-05T08:52:17.614Z,13.60
2022-10-05T08:54:58.395Z,13.60
2022-10-05T08:57:37.236Z,13.60
2022-10-05T09:00:10.495Z,13.60
2022-10-05T09:02:57.889Z,13.60
2022-10-05T09:05:38.174Z,13.60
2022-10-05T09:08:21.935Z,13.60
2022-10-05T09:11:05.079Z,13.60
2022-10-05T09:13:42.974Z,13.60
2022-10-05T09:16:21.325Z,13.60
2022-10-05T09:19:06.604Z,13.60
2022-10-05T09:21:40.397Z,13.60
2022-10-05T09:24:16.677Z,13.60
2022-10-05T09:26:45.847Z,13.60
2022-10-05T09:29:26.991Z,13.70
2022-10-05T09:32:12.948Z,13.70
2022-10-05T09:34:56.815Z,13.70
2022-10-05T09:37:33.474Z,13.90
2022-10-05T09:56:30.059Z,14.50
2022-10-05T09:59:16.429Z,14.60
2022-10-05T10:01:56.613Z,14.70
2022-10-05T10:04:43.648Z,14.70
2022-10-05T10:07:24.364Z,14.70
2022-10-05T10:10:08.213Z,14.80
2022-10-05T10:12:47.239Z,14.80
2022-10-05T10:15:32.994Z,15.00
2022-10-05T10:18:16.069Z,15.00
2022-10-05T10:20:56.138Z,15.10
2022-10-05T10:23:39.206Z,15.10
2022-10-05T10:26:28.327Z,15.10
2022-10-05T10:29:09.407Z,15.00
2022-10-05T10:31:50.354Z,15.10
2022-10-05T10:34:33.453Z,15.00
2022-10-05T10:37:11.014Z,15.00
2022-10-05T10:39:49.146Z,15.00
2022-10-05T10:42:29.195Z,15.00
2022-10-05T10:45:06.199Z,14.90
2022-10-05T10:47:41.173Z,14.90
2022-10-05T10:50:34.850Z,14.90
2022-10-05T10:53:06.717Z,14.90
2022-10-05T10:55:48.084Z,14.90
2022-10-05T10:58:36.880Z,14.90
2022-10-05T11:01:12.588Z,14.90
2022-10-05T11:03:50.326Z,15.00
2022-10-05T11:06:27.380Z,15.00
2022-10-05T11:09:09.447Z,15.00
2022-10-05T11:11:51.577Z,15.00
2022-10-05T11:14:31.387Z,15.00
2022-10-05T11:17:15.602Z,15.00
2022-10-05T11:20:03.757Z,15.10
2022-10-05T11:22:55.706Z,15.20
2022-10-05T11:25:44.531Z,15.20
2022-10-05T11:28:21.005Z,15.20
2022-10-05T11:31:06.874Z,15.30
2022-10-05T11:34:05.351Z,15.30
2022-10-05T11:36:45.081Z,15.30
2022-10-05T11:39:26.154Z,15.30
2022-10-05T11:42:09.457Z,15.30
2022-10-05T11:45:01.087Z,15.30
2022-10-05T11:47:31.230Z,15.40
2022-10-05T11:50:06.644Z,15.40
2022-10-05T11:52:39.870Z,15.40
2022-10-05T11:55:16.601Z,15.40
2022-10-05T11:57:49.394Z,15.40
2022-10-05T12:00:19.426Z,15.50
2022-10-05T12:03:05.617Z,15.50
2022-10-05T12:05:37.745Z,15.50
2022-10-05T12:08:15.773Z,15.60
2022-10-05T12:10:48.538Z,15.70
2022-10-05T12:13:21.419Z,15.70
2022-10-05T12:15:53.031Z,15.70
2022-10-05T12:18:24.318Z,15.70
2022-10-05T12:31:54.870Z,15.60
2022-10-05T12:34:27.490Z,15.60
2022-10-05T12:45:18.442Z,15.60
2022-10-05T12:47:55.887Z,15.70
2022-10-05T12:50:27.261Z,15.80
2022-10-05T12:53:01.323Z,15.70
2022-10-05T12:55:31.955Z,15.70
2022-10-05T12:58:06.686Z,15.70
2022-10-05T13:00:35.859Z,15.60
2022-10-05T13:03:11.962Z,15.70
2022-10-05T13:05:42.583Z,15.70
2022-10-05T13:08:17.915Z,15.60
2022-10-05T13:10:50.385Z,15.60
2022-10-05T13:13:25.618Z,15.50
2022-10-05T13:15:57.860Z,15.60
2022-10-05T13:18:31.116Z,15.50
2022-10-05T13:21:03.779Z,15.60
2022-10-05T13:23:36.280Z,15.60
2022-10-05T13:26:05.139Z,15.50
2022-10-05T13:28:36.361Z,15.60
2022-10-05T13:31:07.515Z,15.50
2022-10-05T13:33:55.442Z,15.60
2022-10-05T13:36:30.159Z,15.50
2022-10-05T13:38:59.979Z,15.60
2022-10-05T13:41:34.399Z,15.60
2022-10-05T13:44:09.221Z,15.70
2022-10-05T13:46:39.147Z,15.80
2022-10-05T13:49:21.768Z,15.80
2022-10-05T13:51:55.599Z,15.70
2022-10-05T13:54:28.099Z,15.70
2022-10-05T13:57:00.332Z,15.80
2022-10-05T13:59:31.673Z,15.60
2022-10-05T14:02:03.378Z,15.50
2022-10-05T14:04:43.646Z,15.50
2022-10-05T14:07:21.886Z,15.50
2022-10-05T14:09:50.570Z,15.50
2022-10-05T14:12:22.019Z,15.30
2022-10-05T14:14:51.002Z,15.30
2022-10-05T14:17:37.036Z,15.20
2022-10-05T14:20:17.909Z,15.30
2022-10-05T14:22:48.606Z,15.40
2022-10-05T14:25:19.401Z,15.30
2022-10-05T14:27:52.045Z,15.30
2022-10-05T14:30:21.206Z,15.20
2022-10-05T14:32:52.037Z,15.10
2022-10-05T14:35:22.214Z,15.20
2022-10-05T14:37:57.653Z,15.10
2022-10-05T14:40:27.889Z,15.10
2022-10-05T14:42:56.202Z,15.20
2022-10-05T14:45:25.141Z,15.10
2022-10-05T14:47:54.666Z,15.00
2022-10-05T14:50:31.721Z,14.90
2022-10-05T14:53:02.213Z,15.00
2022-10-05T14:55:37.416Z,15.00
2022-10-05T14:58:14.933Z,15.00
2022-10-05T15:00:50.749Z,14.90
2022-10-05T15:03:27.373Z,15.00
2022-10-05T15:05:59.997Z,15.00
2022-10-05T15:08:36.395Z,15.00
2022-10-05T15:11:06.451Z,14.90
2022-10-05T15:13:35.576Z,14.90
2022-10-05T15:16:05.932Z,14.90
2022-10-05T15:18:39.805Z,14.90
2022-10-05T15:21:22.743Z,14.80
2022-10-05T15:23:53.976Z,14.80
2022-10-05T15:26:32.419Z,14.90
2022-10-05T15:29:03.046Z,14.90
2022-10-05T15:31:39.861Z,14.90
2022-10-05T15:34:10.401Z,14.90
2022-10-05T15:36:44.564Z,14.90
2022-10-05T15:39:15.613Z,14.80
2022-10-05T15:41:53.086Z,14.80
2022-10-05T15:44:28.581Z,14.80
2022-10-05T15:46:58.394Z,14.80
2022-10-05T15:49:34.035Z,14.80
2022-10-05T15:52:06.775Z,14.80
2022-10-05T15:54:49.889Z,14.80
2022-10-05T15:57:22.247Z,14.70
2022-10-05T16:00:00.601Z,14.70
2022-10-05T16:02:34.457Z,14.70
2022-10-05T16:05:08.527Z,14.80
2022-10-05T16:07:59.375Z,14.80
2022-10-05T16:10:27.581Z,14.80
2022-10-05T16:13:04.498Z,14.80
2022-10-05T16:15:35.740Z,14.80
2022-10-05T16:18:27.039Z,14.80
2022-10-05T16:20:59.990Z,14.80
2022-10-05T16:23:36.913Z,14.80
2022-10-05T16:26:13.244Z,14.80
2022-10-05T16:28:45.927Z,14.80
2022-10-05T16:31:18.779Z,14.80
2022-10-05T16:33:54.635Z,14.80
2022-10-05T16:36:27.241Z,14.80
2022-10-05T16:39:01.307Z,14.80
2022-10-05T16:41:33.611Z,14.80
2022-10-05T16:44:05.995Z,14.80
2022-10-05T16:46:40.818Z,14.80
2022-10-05T16:49:12.972Z,14.80
2022-10-05T16:51:46.022Z,14.70
2022-10-05T16:54:19.767Z,14.80
2022-10-05T16:56:51.037Z,14.70
2022-10-05T16:59:30.867Z,14.70
2022-10-05T17:02:03.128Z,14.70
2022-10-05T17:04:38.678Z,14.70
2022-10-05T17:07:17.220Z,14.80
2022-10-05T17:09:58.681Z,14.80
2022-10-05T17:12:47.813Z,14.80
2022-10-05T17:15:24.000Z,14.80
2022-10-05T17:18:13.234Z,14.80
2022-10-05T17:20:50.777Z,14.80
2022-10-05T17:23:29.330Z,14.80
2022-10-05T17:26:02.143Z,14.70
2022-10-05T17:28:38.586Z,14.80
2022-10-05T17:31:15.800Z,14.80
2022-10-05T17:34:01.659Z,14.70
2022-10-05T17:36:39.444Z,14.70
2022-10-05T17:39:17.583Z,14.70
2022-10-05T17:41:50.708Z,14.70
2022-10-05T17:44:24.507Z,14.70
2022-10-05T17:46:54.375Z,14.70
2022-10-05T17:49:37.272Z,14.70
2022-10-05T17:52:26.441Z,14.80
2022-10-05T17:55:28.267Z,14.80
2022-10-05T17:58:00.017Z,14.80
2022-10-05T18:00:32.249Z,14.80
2022-10-05T18:03:00.675Z,14.80
2022-10-05T18:05:29.290Z,14.90
2022-10-05T18:08:17.766Z,14.90
2022-10-05T18:11:01.390Z,14.90
2022-10-05T18:13:36.604Z,14.90
2022-10-05T18:16:04.984Z,14.90
2022-10-05T18:18:38.825Z,14.90
2022-10-05T18:21:15.727Z,14.90
2022-10-05T18:23:50.004Z,14.90
2022-10-05T18:26:28.471Z,14.80
2022-10-05T18:29:14.104Z,14.90
2022-10-05T18:31:48.058Z,14.90
2022-10-05T18:34:26.423Z,14.90
2022-10-05T18:37:07.233Z,14.90
2022-10-05T18:39:46.619Z,14.90
2022-10-05T18:42:20.333Z,14.90
2022-10-05T18:44:51.532Z,14.90
2022-10-05T18:47:21.680Z,14.90
2022-10-05T18:49:57.381Z,14.90
2022-10-05T18:52:30.465Z,14.90
2022-10-05T18:55:04.200Z,14.90
2022-10-05T18:57:50.517Z,14.90
2022-10-05T19:00:20.887Z,14.90
2022-10-05T19:02:51.935Z,14.80
2022-10-05T19:05:47.474Z,14.90
2022-10-05T19:08:20.384Z,14.90
2022-10-05T19:10:53.857Z,14.90
2022-10-05T19:13:32.102Z,14.90
2022-10-05T19:16:06.762Z,14.90
2022-10-05T19:18:43.593Z,14.90
2022-10-05T19:21:21.556Z,14.80
2022-10-05T19:24:08.770Z,14.90
2022-10-05T19:26:43.012Z,14.80
2022-10-05T19:29:15.029Z,14.80
2022-10-05T19:31:49.497Z,14.80
2022-10-05T19:34:31.045Z,14.80
2022-10-05T19:37:02.362Z,14.80
2022-10-05T19:39:36.775Z,14.80
2022-10-05T19:42:14.323Z,14.80
2022-10-05T19:44:51.033Z,14.80
2022-10-05T19:47:26.035Z,14.80
2022-10-05T19:50:01.333Z,14.80
2022-10-05T19:52:31.309Z,14.80
2022-10-05T19:55:04.751Z,14.80
2022-10-05T19:57:33.053Z,14.80
2022-10-05T20:00:03.850Z,14.80
2022-10-05T20:02:39.934Z,14.80
2022-10-05T20:05:10.375Z,14.80
2022-10-05T20:07:38.781Z,14.80
2022-10-05T20:10:24.658Z,14.80
2022-10-05T20:12:53.385Z,14.70
2022-10-05T20:15:39.695Z,14.80
2022-10-05T20:18:43.920Z,14.80
2022-10-05T20:21:26.873Z,14.80
2022-10-05T20:24:08.763Z,14.80
2022-10-05T20:26:57.825Z,14.90
2022-10-05T20:29:25.962Z,14.80
2022-10-05T20:31:54.002Z,14.90
2022-10-05T20:34:22.989Z,14.90
2022-10-05T20:36:51.374Z,14.90
2022-10-05T20:39:21.490Z,14.90
2022-10-05T20:41:49.757Z,14.90
2022-10-05T20:44:17.780Z,14.90
2022-10-05T20:46:46.658Z,14.90
2022-10-05T20:49:14.967Z,14.90
2022-10-05T20:51:43.027Z,15.00
2022-10-05T20:54:11.193Z,14.90
2022-10-05T20:56:42.699Z,14.90
2022-10-05T20:59:10.702Z,14.90
2022-10-05T21:01:38.861Z,14.90
2022-10-05T21:04:08.001Z,14.90
2022-10-05T21:06:36.281Z,15.00
2022-10-05T21:09:11.353Z,14.90
2022-10-05T21:11:41.014Z,15.00
2022-10-05T21:14:09.247Z,15.00
2022-10-05T21:16:38.401Z,15.00
2022-10-05T21:19:08.724Z,15.00
2022-10-05T21:21:37.030Z,15.00
2022-10-05T21:24:05.249Z,15.00
2022-10-05T21:26:33.501Z,15.00
2022-10-05T21:29:03.382Z,15.00
2022-10-05T21:31:31.941Z,15.00
2022-10-05T21:33:59.986Z,15.00
2022-10-05T21:36:28.067Z,15.00
2022-10-05T21:38:56.645Z,15.00
2022-10-05T21:41:24.715Z,15.00
2022-10-05T21:43:53.066Z,15.00
2022-10-05T21:46:23.461Z,15.00
2022-10-05T21:48:51.675Z,15.00
2022-10-05T21:51:20.283Z,15.00
2022-10-05T21:53:50.599Z,15.00
2022-10-05T21:56:20.237Z,15.00
2022-10-05T21:58:48.857Z,15.00
2022-10-05T22:01:22.269Z,15.00
2022-10-05T22:03:52.247Z,15.00
2022-10-05T22:06:20.257Z,15.00
2022-10-05T22:08:48.349Z,15.00
2022-10-05T22:11:17.979Z,15.00
2022-10-05T22:13:46.827Z,15.00
2022-10-05T22:16:18.933Z,15.00
2022-10-05T22:18:47.290Z,15.00
2022-10-05T22:21:17.099Z,15.00
2022-10-05T22:23:46.704Z,15.00
2022-10-05T22:26:16.134Z,15.00
2022-10-05T22:28:44.476Z,15.00
2022-10-05T22:31:13.150Z,15.00
2022-10-05T22:33:41.231Z,15.00
2022-10-05T22:36:09.969Z,14.90
2022-10-05T22:38:39.431Z,15.00
2022-10-05T22:41:10.735Z,15.00
2022-10-05T22:43:39.037Z,14.90
2022-10-05T22:46:11.028Z,14.90
2022-10-05T22:48:39.254Z,15.00
2022-10-05T22:51:07.530Z,15.00
2022-10-05T22:53:35.680Z,15.00
2022-10-05T22:56:09.563Z,14.90
2022-10-05T22:58:39.966Z,15.00
2022-10-05T23:01:08.677Z,15.00
2022-10-05T23:03:36.979Z,15.00
2022-10-05T23:06:06.279Z,15.00
2022-10-05T23:08:34.752Z,15.00
2022-10-05T23:11:03.495Z,15.00
2022-10-05T23:13:33.168Z,15.00
2022-10-05T23:16:09.455Z,15.00
2022-10-05T23:18:40.242Z,15.00
2022-10-05T23:21:08.802Z,15.00
2022-10-05T23:23:37.116Z,15.00
2022-10-05T23:26:05.948Z,15.00
2022-10-05T23:28:35.750Z,15.00
2022-10-05T23:31:05.183Z,15.00
2022-10-05T23:33:33.351Z,15.00
2022-10-05T23:36:01.669Z,15.00
2022-10-05T23:38:30.655Z,15.00
2022-10-05T23:40:59.963Z,15.00
2022-10-05T23:43:28.224Z,15.10
2022-10-05T23:45:58.241Z,15.00
2022-10-05T23:48:27.058Z,15.00
2022-10-05T23:50:55.895Z,15.00
2022-10-05T23:53:31.943Z,15.00
2022-10-05T23:55:59.951Z,15.10
2022-10-05T23:58:28.475Z,15.10
